Terminal Aerodrome Forecast
Issued by NWS

Home | Current Version | Previous Version | Text Only | Print | Product List | Glossary On
Versions: 1 2 3 4 5 6 7 8 9 10 11 12 13 14 15 16 17 18 19 20 21
000
FTUS43 KIND 270500
TAFLAF
TAF
KLAF 270531Z 2706/2806 01007KT P6SM OVC020
     FM271300 31012KT P6SM OVC025
     FM280200 31008KT P6SM SCT100 BKN250
      AMD LTD TO CLD VIS AND WIND TIL 271400=

USA.gov is the U.S. government's official web portal to all federal, state and local government web resources and services.